Time;durP1;ratioP1;P1;durP2;ratioP2;P2;SDS_P1;SDS_P2;PMS_P1;PMS_P2;Temp;Humidity;BMP_temperature;BMP_pressure;BME280_temperature;BME280_humidity;BME280_pressure;Samples;Min_cycle;Max_cycle;Signal;HPM_P1;HPM_P2
2021/12/03 00:27:14;;;;;;;6.18;2.80;;;3.40;81.90;;;;;;5064976;28;20106;-67
2021/12/03 00:29:41;;;;;;;6.47;2.85;;;3.40;81.60;;;;;;5024482;28;20621;-66
2021/12/03 00:32:09;;;;;;;6.43;3.38;;;3.40;81.50;;;;;;5044208;28;20474;-65
2021/12/03 00:34:36;;;;;;;9.75;4.32;;;3.30;81.40;;;;;;5045641;28;20094;-66
2021/12/03 00:37:03;;;;;;;9.98;3.47;;;3.40;81.30;;;;;;5047429;28;20140;-66
2021/12/03 00:39:30;;;;;;;9.90;4.50;;;3.30;81.10;;;;;;5045988;28;20065;-66
2021/12/03 00:41:59;;;;;;;7.18;3.80;;;3.30;81.10;;;;;;5030579;28;20133;-67
2021/12/03 00:44:29;;;;;;;7.53;3.50;;;3.30;81.20;;;;;;5047923;28;20048;-66
2021/12/03 00:47:00;;;;;;;7.15;3.15;;;3.30;81.10;;;;;;5048164;28;20055;-66
2021/12/03 00:49:28;;;;;;;8.32;3.90;;;3.30;81.10;;;;;;5046347;28;20528;-66
2021/12/03 00:51:55;;;;;;;6.00;3.38;;;3.20;81.20;;;;;;5048814;28;20056;-66
2021/12/03 00:54:22;;;;;;;7.50;3.83;;;3.20;81.30;;;;;;5047042;28;20530;-66
2021/12/03 00:56:49;;;;;;;8.48;3.40;;;3.20;81.30;;;;;;5047235;28;20051;-67
2021/12/03 00:59:16;;;;;;;10.10;3.47;;;3.20;81.30;;;;;;5046130;28;20045;-65
2021/12/03 01:01:49;;;;;;;8.75;3.78;;;3.20;81.40;;;;;;5046134;28;20410;-66
2021/12/03 01:04:16;;;;;;;8.75;3.53;;;3.20;81.30;;;;;;5048304;28;20057;-66
2021/12/03 01:06:43;;;;;;;9.63;4.47;;;3.20;81.30;;;;;;5042477;28;20049;-65
2021/12/03 01:09:10;;;;;;;7.88;3.70;;;3.20;81.20;;;;;;5047730;28;20220;-66
2021/12/03 01:11:37;;;;;;;10.05;3.60;;;3.20;81.30;;;;;;5047044;28;20041;-65
2021/12/03 01:14:05;;;;;;;10.35;3.92;;;3.20;81.30;;;;;;5048153;28;20128;-66
2021/12/03 01:16:33;;;;;;;8.38;3.45;;;3.20;81.30;;;;;;5046995;28;20081;-67
2021/12/03 01:19:02;;;;;;;8.38;3.10;;;3.20;81.10;;;;;;5046526;28;20040;-65
2021/12/03 01:21:30;;;;;;;7.32;3.75;;;3.20;81.10;;;;;;5046724;28;20057;-65
2021/12/03 01:23:58;;;;;;;6.22;2.97;;;3.20;81.20;;;;;;5045392;28;20049;-65
2021/12/03 01:26:25;;;;;;;8.50;3.85;;;3.20;81.20;;;;;;5050065;28;20052;-67
2021/12/03 01:28:58;;;;;;;8.05;4.07;;;3.20;81.20;;;;;;5070519;28;20136;-67
2021/12/03 01:31:26;;;;;;;6.38;2.90;;;3.20;81.10;;;;;;5066395;28;20072;-68
2021/12/03 01:33:53;;;;;;;7.22;2.97;;;3.20;81.20;;;;;;5078334;28;20051;-67
2021/12/03 01:36:21;;;;;;;6.30;3.28;;;3.10;81.20;;;;;;5074718;28;20136;-68
2021/12/03 01:38:48;;;;;;;9.90;3.30;;;3.10;81.30;;;;;;5077013;28;20060;-66
2021/12/03 01:41:15;;;;;;;5.80;3.42;;;3.10;81.20;;;;;;5078962;28;20477;-66
2021/12/03 01:43:43;;;;;;;6.25;2.90;;;3.00;81.20;;;;;;5077111;28;20169;-67
2021/12/03 01:46:11;;;;;;;5.93;3.42;;;3.00;81.10;;;;;;5079117;28;20070;-67
2021/12/03 01:48:40;;;;;;;6.78;3.03;;;3.00;81.10;;;;;;5078179;28;20056;-68
2021/12/03 01:51:08;;;;;;;7.20;3.50;;;3.00;81.10;;;;;;5080179;28;20047;-65
2021/12/03 01:53:38;;;;;;;7.93;3.63;;;3.00;81.20;;;;;;5069123;28;20048;-66
2021/12/03 01:56:09;;;;;;;7.75;3.65;;;3.00;81.10;;;;;;5076863;28;20070;-67
2021/12/03 01:58:36;;;;;;;6.65;3.30;;;3.00;81.10;;;;;;5075126;28;20045;-68
2021/12/03 02:01:06;;;;;;;6.28;3.15;;;3.00;81.00;;;;;;5068260;28;20410;-66
2021/12/03 02:03:35;;;;;;;8.82;3.35;;;3.00;81.00;;;;;;5076452;28;20047;-68
2021/12/03 02:06:03;;;;;;;8.43;4.00;;;2.90;81.00;;;;;;5078083;28;20534;-66
2021/12/03 02:08:31;;;;;;;9.13;3.90;;;2.90;81.10;;;;;;5076745;28;20044;-66
2021/12/03 02:10:59;;;;;;;5.47;2.97;;;2.90;81.10;;;;;;5075721;28;20060;-68
2021/12/03 02:13:27;;;;;;;6.40;3.67;;;2.90;81.30;;;;;;5094214;28;20043;-66
2021/12/03 02:15:54;;;;;;;9.45;3.10;;;2.90;81.40;;;;;;5080467;28;20130;-67
2021/12/03 02:18:21;;;;;;;6.97;3.67;;;2.90;81.60;;;;;;5079194;28;20052;-68
2021/12/03 02:20:53;;;;;;;6.53;3.08;;;2.90;81.80;;;;;;5078837;28;20048;-65
2021/12/03 02:23:21;;;;;;;7.78;4.03;;;3.00;81.80;;;;;;5079105;28;20097;-65
2021/12/03 02:25:48;;;;;;;8.07;3.80;;;3.00;81.90;;;;;;5073155;28;20048;-67
2021/12/03 02:28:17;;;;;;;12.88;3.08;;;3.00;82.00;;;;;;5078686;28;20476;-65
2021/12/03 02:30:44;;;;;;;6.75;3.50;;;3.00;81.90;;;;;;5077197;28;20123;-66
2021/12/03 02:33:12;;;;;;;7.63;3.80;;;3.00;81.90;;;;;;5095552;28;20458;-68
2021/12/03 02:35:40;;;;;;;9.38;3.75;;;3.00;82.10;;;;;;5077027;28;20044;-65
2021/12/03 02:38:09;;;;;;;8.57;3.58;;;3.00;82.10;;;;;;5079123;28;20144;-66
2021/12/03 02:40:41;;;;;;;6.60;3.17;;;3.00;82.20;;;;;;5080686;28;20076;-69
2021/12/03 02:43:08;;;;;;;7.65;3.72;;;2.90;82.10;;;;;;5064815;28;20051;-66
2021/12/03 02:45:35;;;;;;;7.53;3.25;;;3.00;82.20;;;;;;5077839;28;20040;-66
2021/12/03 02:48:04;;;;;;;9.27;3.00;;;3.00;82.30;;;;;;5078080;28;20051;-65
2021/12/03 02:50:38;;;;;;;7.88;2.90;;;3.00;82.20;;;;;;5077273;28;20102;-67
2021/12/03 02:53:06;;;;;;;8.40;3.40;;;2.90;82.40;;;;;;5076227;28;20080;-66
2021/12/03 02:55:34;;;;;;;5.35;2.28;;;2.90;82.30;;;;;;5076705;28;20036;-66
2021/12/03 02:58:01;;;;;;;6.90;2.97;;;2.90;82.20;;;;;;5078817;28;20058;-68
2021/12/03 03:00:30;;;;;;;8.43;3.63;;;2.90;82.00;;;;;;5073987;28;20036;-69
2021/12/03 03:02:58;;;;;;;6.90;3.35;;;2.90;82.00;;;;;;5076928;28;20057;-68
2021/12/03 03:05:27;;;;;;;6.90;3.05;;;2.80;81.90;;;;;;5075467;28;20409;-67
2021/12/03 03:07:54;;;;;;;5.75;2.75;;;2.80;81.80;;;;;;5079282;28;20049;-67
2021/12/03 03:10:30;;;;;;;5.60;2.35;;;2.80;81.80;;;;;;5077857;28;20048;-68
2021/12/03 03:12:59;;;;;;;6.38;3.33;;;2.80;81.80;;;;;;5071099;28;20052;-66
2021/12/03 03:15:26;;;;;;;8.80;4.05;;;2.80;81.70;;;;;;5076753;28;20052;-66
2021/12/03 03:17:54;;;;;;;6.18;2.55;;;2.70;81.80;;;;;;5071525;28;20053;-65
2021/12/03 03:20:23;;;;;;;8.80;3.47;;;2.80;81.90;;;;;;5076958;28;20053;-67
2021/12/03 03:22:50;;;;;;;8.40;3.30;;;2.80;81.90;;;;;;5074671;28;20067;-67
2021/12/03 03:25:20;;;;;;;8.07;3.60;;;2.80;82.00;;;;;;5074430;28;20135;-65
2021/12/03 03:27:47;;;;;;;6.22;3.13;;;2.80;82.00;;;;;;5072715;28;20139;-68
2021/12/03 03:30:18;;;;;;;6.88;3.38;;;2.80;82.00;;;;;;5074838;28;20045;-67
2021/12/03 03:32:46;;;;;;;7.05;3.13;;;2.70;82.10;;;;;;5076218;28;20058;-68
2021/12/03 03:35:13;;;;;;;8.00;3.38;;;2.70;82.10;;;;;;5069687;28;20052;-68
2021/12/03 03:37:40;;;;;;;6.47;2.45;;;2.70;82.10;;;;;;5070089;28;20387;-67
2021/12/03 03:40:08;;;;;;;7.05;3.05;;;2.70;82.20;;;;;;5076702;28;20434;-68
2021/12/03 03:42:35;;;;;;;5.15;2.63;;;2.70;82.20;;;;;;5073030;28;20056;-66
2021/12/03 03:45:03;;;;;;;5.32;2.35;;;2.70;82.20;;;;;;5075506;28;20056;-67
2021/12/03 03:47:32;;;;;;;7.95;3.33;;;2.70;82.30;;;;;;5070728;28;20572;-68
2021/12/03 03:49:59;;;;;;;7.85;3.38;;;2.70;82.30;;;;;;5076464;28;20698;-68
2021/12/03 03:52:27;;;;;;;9.13;3.58;;;2.70;82.10;;;;;;5069720;28;20381;-66
2021/12/03 03:54:55;;;;;;;8.82;3.53;;;2.70;82.10;;;;;;5075484;28;20052;-66
2021/12/03 03:57:22;;;;;;;8.00;3.20;;;2.70;82.10;;;;;;5077206;28;20401;-65
2021/12/03 03:59:49;;;;;;;8.57;3.72;;;2.60;82.10;;;;;;5073930;28;20052;-67
2021/12/03 04:02:16;;;;;;;6.72;3.75;;;2.70;82.20;;;;;;5073874;28;20044;-67
2021/12/03 04:04:44;;;;;;;8.32;3.00;;;2.60;82.30;;;;;;5084710;28;20412;-67
2021/12/03 04:07:11;;;;;;;7.13;3.40;;;2.60;82.30;;;;;;5075149;28;20048;-66
2021/12/03 04:09:38;;;;;;;6.15;3.55;;;2.70;82.20;;;;;;5090117;28;20496;-66
2021/12/03 04:12:06;;;;;;;6.10;3.03;;;2.70;82.20;;;;;;5076699;28;20046;-67
2021/12/03 04:14:33;;;;;;;10.45;3.20;;;2.70;82.20;;;;;;5076920;28;20053;-66
2021/12/03 04:17:00;;;;;;;8.35;3.83;;;2.70;82.20;;;;;;5078271;28;20055;-66
2021/12/03 04:19:27;;;;;;;6.90;3.47;;;2.70;82.30;;;;;;5076894;28;20106;-66
2021/12/03 04:21:56;;;;;;;6.32;3.33;;;2.60;82.40;;;;;;5078384;28;20075;-66
2021/12/03 04:24:23;;;;;;;9.13;3.55;;;2.70;82.40;;;;;;5074200;28;20053;-68
2021/12/03 04:26:50;;;;;;;5.75;2.97;;;2.70;82.30;;;;;;5078599;28;20052;-68
2021/12/03 04:29:17;;;;;;;7.43;3.50;;;2.70;82.20;;;;;;5073751;28;20051;-66
2021/12/03 04:31:44;;;;;;;7.82;3.22;;;2.60;82.10;;;;;;5077781;28;20040;-66
2021/12/03 04:34:11;;;;;;;6.40;3.03;;;2.60;82.10;;;;;;5077613;28;20049;-67
2021/12/03 04:36:38;;;;;;;6.78;3.15;;;2.60;82.00;;;;;;5075580;28;20049;-67
2021/12/03 04:39:06;;;;;;;6.30;2.83;;;2.60;81.90;;;;;;5078078;28;20048;-67
2021/12/03 04:41:33;;;;;;;9.13;3.22;;;2.60;81.90;;;;;;5076819;28;20044;-67
2021/12/03 04:44:00;;;;;;;8.93;4.15;;;2.60;81.80;;;;;;5078778;28;20490;-65
2021/12/03 04:46:31;;;;;;;6.25;3.30;;;2.60;81.80;;;;;;5076739;28;20068;-67
2021/12/03 04:48:58;;;;;;;6.97;3.60;;;2.50;81.70;;;;;;5079072;28;20049;-67
2021/12/03 04:51:25;;;;;;;7.47;3.35;;;2.50;81.80;;;;;;5078074;28;20052;-66
2021/12/03 04:53:52;;;;;;;10.95;4.65;;;2.50;81.70;;;;;;5077054;28;20063;-68
2021/12/03 04:56:20;;;;;;;7.18;3.65;;;2.60;81.80;;;;;;5080761;28;20455;-68
2021/12/03 04:58:47;;;;;;;7.00;2.75;;;2.50;81.80;;;;;;5076380;28;20051;-68
2021/12/03 05:01:14;;;;;;;6.68;3.10;;;2.50;81.70;;;;;;5076426;28;20056;-68
2021/12/03 05:03:42;;;;;;;7.82;4.05;;;2.50;81.70;;;;;;5080058;28;20048;-65
2021/12/03 05:06:14;;;;;;;7.22;3.20;;;2.50;81.70;;;;;;5080445;28;20064;-67
2021/12/03 05:08:41;;;;;;;5.97;3.20;;;2.50;81.50;;;;;;5079468;28;20068;-65
2021/12/03 05:11:08;;;;;;;7.15;3.28;;;2.50;81.40;;;;;;5072049;28;20051;-68
2021/12/03 05:13:37;;;;;;;7.45;3.72;;;2.40;81.30;;;;;;5080083;28;20059;-67
2021/12/03 05:16:05;;;;;;;6.60;3.03;;;2.40;81.20;;;;;;5078603;28;20052;-68
2021/12/03 05:18:33;;;;;;;9.00;3.15;;;2.40;81.20;;;;;;5073996;28;20040;-67
2021/12/03 05:21:02;;;;;;;8.45;3.15;;;2.40;81.20;;;;;;5079106;28;20492;-68
2021/12/03 05:23:31;;;;;;;9.85;3.90;;;2.40;81.00;;;;;;5079872;28;20095;-68
2021/12/03 05:25:59;;;;;;;8.40;3.55;;;2.30;81.10;;;;;;5092294;28;20052;-67
2021/12/03 05:28:27;;;;;;;7.47;3.88;;;2.30;81.00;;;;;;5077400;28;20055;-67
2021/12/03 05:30:55;;;;;;;8.82;3.55;;;2.30;80.90;;;;;;5077278;28;20436;-67
2021/12/03 05:33:22;;;;;;;8.05;4.38;;;2.30;80.90;;;;;;5078687;28;20074;-66
2021/12/03 05:35:49;;;;;;;8.18;4.53;;;2.30;80.80;;;;;;5079682;28;20389;-67
2021/12/03 05:38:17;;;;;;;7.88;3.47;;;2.30;80.80;;;;;;5081319;28;20062;-66
2021/12/03 05:40:44;;;;;;;7.90;3.65;;;2.20;80.70;;;;;;5081049;28;20401;-66
2021/12/03 05:43:11;;;;;;;6.57;3.30;;;2.20;80.80;;;;;;5079231;28;20488;-66
2021/12/03 05:45:38;;;;;;;7.65;3.53;;;2.20;80.80;;;;;;5080253;28;20139;-67
2021/12/03 05:48:07;;;;;;;8.95;4.05;;;2.20;80.70;;;;;;5071686;28;20039;-67
2021/12/03 05:50:34;;;;;;;7.75;3.50;;;2.20;80.80;;;;;;5078334;28;20425;-65
2021/12/03 05:53:01;;;;;;;7.50;3.65;;;2.20;80.70;;;;;;5079368;28;20055;-67
2021/12/03 05:55:30;;;;;;;9.55;3.45;;;2.10;80.60;;;;;;5079798;28;20090;-67
2021/12/03 05:57:57;;;;;;;9.50;3.75;;;2.10;80.60;;;;;;5078995;28;20048;-68
2021/12/03 06:00:27;;;;;;;7.05;3.38;;;2.00;80.80;;;;;;5074357;28;20306;-67
2021/12/03 06:02:55;;;;;;;8.35;4.05;;;2.10;80.80;;;;;;5078215;28;20398;-66
2021/12/03 06:05:24;;;;;;;11.18;4.20;;;2.10;80.80;;;;;;5080900;28;20052;-67
2021/12/03 06:07:51;;;;;;;9.73;4.80;;;2.00;80.70;;;;;;5079318;28;20508;-65
2021/12/03 06:10:19;;;;;;;7.45;3.97;;;2.00;80.70;;;;;;5078138;28;20044;-66
2021/12/03 06:12:47;;;;;;;10.30;4.63;;;2.00;80.80;;;;;;5078164;28;20040;-67
2021/12/03 06:15:14;;;;;;;9.88;4.40;;;2.00;80.80;;;;;;5079061;28;20410;-66
2021/12/03 06:17:42;;;;;;;11.70;4.50;;;2.00;80.90;;;;;;5072441;28;20077;-65
2021/12/03 06:20:10;;;;;;;10.25;5.22;;;2.00;80.90;;;;;;5078941;28;20052;-67
2021/12/03 06:22:38;;;;;;;8.85;4.32;;;2.00;80.90;;;;;;5078625;28;20158;-66
2021/12/03 06:25:07;;;;;;;12.30;5.70;;;2.00;80.90;;;;;;5077211;28;20090;-66
2021/12/03 06:27:34;;;;;;;6.32;3.85;;;2.00;80.80;;;;;;5073430;28;20045;-66
2021/12/03 06:30:03;;;;;;;9.48;4.10;;;2.00;80.80;;;;;;5078849;28;20055;-68
2021/12/03 06:32:30;;;;;;;7.43;3.72;;;2.00;80.90;;;;;;5077619;28;20044;-67
2021/12/03 06:34:56;;;;;;;11.20;5.00;;;2.00;80.80;;;;;;5077180;28;20051;-68
2021/12/03 06:37:23;;;;;;;9.85;4.55;;;2.00;80.80;;;;;;5075162;28;20045;-67
2021/12/03 06:39:52;;;;;;;8.88;4.03;;;1.90;81.00;;;;;;5078570;28;20051;-68
2021/12/03 06:42:19;;;;;;;7.78;3.90;;;1.90;81.20;;;;;;5075844;28;20040;-66
2021/12/03 06:44:46;;;;;;;11.60;4.75;;;1.90;81.20;;;;;;5076653;28;20047;-68
2021/12/03 06:47:13;;;;;;;9.77;4.40;;;1.90;81.20;;;;;;5078922;28;20127;-67
2021/12/03 06:49:40;;;;;;;8.43;4.28;;;1.90;81.00;;;;;;5065866;28;20044;-66
2021/12/03 06:52:10;;;;;;;7.70;4.07;;;2.00;81.00;;;;;;5076073;28;20056;-68
2021/12/03 06:54:37;;;;;;;11.38;4.85;;;1.90;81.00;;;;;;5072899;28;20437;-65
2021/12/03 06:57:08;;;;;;;9.98;4.78;;;2.00;80.90;;;;;;5066137;28;20048;-69
2021/12/03 06:59:36;;;;;;;12.00;7.20;;;2.00;80.90;;;;;;5070945;28;20055;-66
2021/12/03 07:02:05;;;;;;;8.25;4.25;;;2.00;80.90;;;;;;5075527;28;20045;-67
2021/12/03 07:04:36;;;;;;;7.70;4.15;;;1.90;80.80;;;;;;5076681;28;20047;-68
2021/12/03 07:07:03;;;;;;;9.48;4.70;;;1.90;80.70;;;;;;5075980;28;20375;-67
2021/12/03 07:09:30;;;;;;;8.75;3.97;;;1.90;80.80;;;;;;5074980;28;20053;-66
2021/12/03 07:11:57;;;;;;;9.73;4.50;;;1.90;80.80;;;;;;5076949;28;20047;-67
2021/12/03 07:14:25;;;;;;;11.43;4.80;;;1.90;81.00;;;;;;5076961;28;20127;-67
2021/12/03 07:16:53;;;;;;;12.15;4.45;;;2.00;81.00;;;;;;5077959;28;20074;-66
2021/12/03 07:19:19;;;;;;;10.32;4.82;;;2.00;81.10;;;;;;5066510;28;20704;-67
2021/12/03 07:21:46;;;;;;;6.53;3.20;;;2.00;81.00;;;;;;5078476;28;20048;-67
2021/12/03 07:24:13;;;;;;;12.57;5.43;;;2.00;81.00;;;;;;5075273;28;20420;-65
2021/12/03 07:26:40;;;;;;;10.20;5.03;;;1.90;80.90;;;;;;5072319;28;20182;-68
2021/12/03 07:29:07;;;;;;;8.43;4.82;;;2.00;80.80;;;;;;5071421;28;20045;-67
2021/12/03 07:31:36;;;;;;;8.52;4.70;;;1.90;80.80;;;;;;5076199;28;20474;-65
2021/12/03 07:34:03;;;;;;;11.30;4.38;;;1.90;80.80;;;;;;5073651;28;20051;-67
2021/12/03 07:36:30;;;;;;;9.10;4.65;;;1.90;80.80;;;;;;5074997;28;20071;-67
2021/12/03 07:38:57;;;;;;;9.13;4.85;;;1.90;80.70;;;;;;5078625;28;20052;-68
2021/12/03 07:41:24;;;;;;;14.38;6.28;;;1.90;80.70;;;;;;5075112;28;20045;-67
2021/12/03 07:43:51;;;;;;;12.20;5.70;;;1.90;80.70;;;;;;5075809;28;20056;-67
2021/12/03 07:46:18;;;;;;;9.15;4.85;;;1.90;80.70;;;;;;5077419;28;20160;-66
2021/12/03 07:48:48;;;;;;;15.38;5.25;;;1.80;80.90;;;;;;5076941;28;20138;-68
2021/12/03 07:51:15;;;;;;;11.97;5.67;;;1.90;81.00;;;;;;5075974;28;20068;-66
2021/12/03 07:53:42;;;;;;;10.63;5.25;;;1.90;81.00;;;;;;5071176;28;20393;-68
2021/12/03 07:56:10;;;;;;;9.20;5.43;;;1.90;81.00;;;;;;5075611;28;20048;-68
2021/12/03 07:58:37;;;;;;;8.68;4.43;;;1.90;81.10;;;;;;5076466;28;20049;-67
2021/12/03 08:01:05;;;;;;;10.27;4.57;;;2.00;81.20;;;;;;5081320;28;20070;-65
2021/12/03 08:03:31;;;;;;;10.38;5.20;;;2.00;81.30;;;;;;5077022;28;20052;-67
2021/12/03 08:06:05;;;;;;;9.05;4.63;;;2.00;81.30;;;;;;5079047;28;20056;-67
2021/12/03 08:08:32;;;;;;;10.68;4.05;;;2.00;81.40;;;;;;5076011;28;20041;-67
2021/12/03 08:10:59;;;;;;;11.77;4.78;;;2.00;81.40;;;;;;5078830;28;20055;-67
2021/12/03 08:13:26;;;;;;;8.90;4.13;;;2.00;81.40;;;;;;5077770;28;20044;-66
2021/12/03 08:15:53;;;;;;;9.25;3.50;;;2.10;81.50;;;;;;5068751;28;20704;-67
2021/12/03 08:18:21;;;;;;;7.05;3.88;;;2.10;81.40;;;;;;5074955;28;20048;-67
2021/12/03 08:20:48;;;;;;;10.57;4.75;;;2.10;81.40;;;;;;5075354;28;20062;-67
2021/12/03 08:23:17;;;;;;;9.27;4.32;;;2.10;81.40;;;;;;5075359;28;20052;-68
2021/12/03 08:25:45;;;;;;;9.88;4.13;;;2.10;81.40;;;;;;5070621;28;20401;-68
2021/12/03 08:28:12;;;;;;;8.77;4.05;;;2.10;81.50;;;;;;5074978;28;20051;-69
2021/12/03 08:30:40;;;;;;;18.02;6.95;;;2.20;81.50;;;;;;5074701;28;20057;-68
2021/12/03 08:33:07;;;;;;;19.25;7.53;;;2.20;81.60;;;;;;5073791;28;20497;-67
2021/12/03 08:35:34;;;;;;;21.00;8.63;;;2.20;81.60;;;;;;5072780;28;20044;-67
2021/12/03 08:38:01;;;;;;;16.45;6.60;;;2.20;81.50;;;;;;5076184;28;20083;-67
2021/12/03 08:40:29;;;;;;;11.63;5.15;;;2.20;81.50;;;;;;5075072;28;20052;-69
2021/12/03 08:42:57;;;;;;;13.32;4.93;;;2.20;81.60;;;;;;5077089;28;20054;-68
2021/12/03 08:45:25;;;;;;;10.15;4.88;;;2.20;81.50;;;;;;5074366;28;20052;-67
2021/12/03 08:47:58;;;;;;;9.90;4.90;;;2.30;81.70;;;;;;5075981;28;20074;-66
2021/12/03 08:50:29;;;;;;;9.23;4.47;;;2.30;81.80;;;;;;5073908;28;20573;-68
2021/12/03 08:53:20;;;;;;;6.97;3.95;;;2.30;81.80;;;;;;5077211;28;20155;-67
2021/12/03 08:55:47;;;;;;;;;;;2.30;81.70;;;;;;5061198;28;20543;-65
2021/12/03 08:58:16;;;;;;;8.20;4.13;;;2.30;81.80;;;;;;5071414;28;19924;-67
2021/12/03 09:00:44;;;;;;;7.55;3.70;;;2.40;81.90;;;;;;5070792;28;20051;-67
2021/12/03 09:03:12;;;;;;;8.93;4.15;;;2.40;81.90;;;;;;5072160;28;20051;-66
2021/12/03 09:05:40;;;;;;;7.72;3.47;;;2.40;81.90;;;;;;5070109;28;20244;-67
2021/12/03 09:08:07;;;;;;;10.27;3.53;;;2.50;81.90;;;;;;5069979;28;20459;-67
2021/12/03 09:10:35;;;;;;;9.27;3.28;;;2.50;82.00;;;;;;5072987;28;20529;-67
2021/12/03 09:13:04;;;;;;;7.68;3.45;;;2.50;81.90;;;;;;5075191;28;20049;-67
2021/12/03 09:15:37;;;;;;;6.32;3.58;;;2.60;81.90;;;;;;5072962;28;20060;-67
2021/12/03 09:18:14;;;;;;;6.45;3.05;;;2.60;82.10;;;;;;5071724;28;20080;-66
2021/12/03 09:20:51;;;;;;;5.43;2.35;;;2.60;82.10;;;;;;5073758;28;20056;-66
2021/12/03 09:23:25;;;;;;;8.20;2.85;;;2.60;82.00;;;;;;5075919;28;20060;-68
2021/12/03 09:25:54;;;;;;;7.20;2.90;;;2.70;82.10;;;;;;5071961;28;20048;-66
2021/12/03 09:28:27;;;;;;;9.05;3.28;;;2.70;82.10;;;;;;5075805;28;20048;-66
2021/12/03 09:30:54;;;;;;;6.80;3.13;;;2.70;82.00;;;;;;5075777;28;20052;-67
2021/12/03 09:33:25;;;;;;;7.13;3.08;;;2.70;82.00;;;;;;5067310;28;20048;-66
2021/12/03 09:35:55;;;;;;;;;;;2.70;82.10;;;;;;5074932;28;20048;-67
2021/12/03 09:38:24;;;;;;;4.95;2.20;;;2.70;82.20;;;;;;5077670;28;19930;-66
2021/12/03 09:40:52;;;;;;;7.20;3.40;;;2.70;82.10;;;;;;5072453;28;20134;-65
2021/12/03 09:43:19;;;;;;;5.25;2.38;;;2.70;82.20;;;;;;5073623;28;20516;-67
2021/12/03 09:45:57;;;;;;;5.13;2.38;;;2.80;82.10;;;;;;5077230;28;20040;-68
2021/12/03 09:48:35;;;;;;;6.10;2.97;;;2.80;82.10;;;;;;5080085;28;20064;-66
2021/12/03 09:51:02;;;;;;;13.38;3.38;;;2.80;82.20;;;;;;5079188;28;20063;-65
2021/12/03 09:53:46;;;;;;;6.47;2.65;;;2.80;82.20;;;;;;5079402;28;20097;-67
2021/12/03 09:56:14;;;;;;;9.13;2.63;;;2.90;82.20;;;;;;5078274;28;20459;-66
2021/12/03 10:01:56;;;;;;;6.82;3.00;;;2.90;82.00;;;;;;5056465;28;20703;-67
2021/12/03 10:04:40;;;;;;;4.70;2.63;;;3.00;82.00;;;;;;5050935;28;20045;-66
2021/12/03 10:10:39;;;;;;;6.97;2.45;;;3.10;82.00;;;;;;5053798;28;20061;-68
2021/12/03 10:13:11;;;;;;;5.55;2.90;;;3.20;81.90;;;;;;5068734;28;20049;-66
2021/12/03 10:15:50;;;;;;;6.95;3.00;;;3.20;81.80;;;;;;5048026;28;20045;-66
2021/12/03 10:18:31;;;;;;;5.03;2.17;;;3.20;81.90;;;;;;5053808;28;20045;-68
2021/12/03 10:21:04;;;;;;;5.93;2.63;;;3.20;81.90;;;;;;5053572;28;20246;-67
2021/12/03 10:29:20;;;;;;;4.40;2.03;;;3.30;81.60;;;;;;5053991;28;20463;-67
2021/12/03 10:38:08;;;;;;;6.68;2.55;;;3.40;81.40;;;;;;5051934;28;20045;-66
2021/12/03 10:40:53;;;;;;;6.20;2.58;;;3.40;81.20;;;;;;5053510;28;20107;-67
2021/12/03 10:43:45;;;;;;;3.40;1.98;;;3.50;81.10;;;;;;5074795;28;20048;-67
2021/12/03 10:49:01;;;;;;;5.45;3.08;;;3.50;81.10;;;;;;5056909;28;20056;-66
2021/12/03 10:51:47;;;;;;;5.80;2.92;;;3.50;81.10;;;;;;5074100;28;20053;-65
2021/12/03 10:54:31;;;;;;;5.10;2.85;;;3.50;81.00;;;;;;5075257;28;20056;-66
2021/12/03 10:57:21;;;;;;;3.72;1.88;;;3.50;80.60;;;;;;5070681;28;20149;-66
2021/12/03 11:06:00;;;;;;;4.03;1.98;;;3.50;80.20;;;;;;5072720;28;20133;-67
2021/12/03 11:33:36;;;;;;;4.63;2.30;;;3.60;80.00;;;;;;5028757;28;20618;-66
2021/12/03 12:36:23;;;;;;;4.90;2.03;;;3.90;78.20;;;;;;5000188;28;20041;-66
2021/12/03 12:45:12;;;;;;;2.72;1.60;;;3.90;77.80;;;;;;5050083;28;20407;-66
2021/12/03 13:10:58;;;;;;;3.33;1.90;;;3.80;77.20;;;;;;5045405;28;20398;-66
2021/12/03 13:13:50;;;;;;;3.75;1.13;;;3.80;77.00;;;;;;5048313;28;20064;-67
2021/12/03 14:09:46;;;;;;;4.53;1.55;;;3.70;76.90;;;;;;5052693;28;20061;-67
2021/12/03 14:43:22;;;;;;;7.20;3.00;;;3.70;77.40;;;;;;5056475;28;20040;-65
2021/12/03 14:46:18;;;;;;;6.43;2.72;;;3.70;77.40;;;;;;5049386;28;20052;-66
2021/12/03 14:51:47;;;;;;;8.18;2.80;;;3.70;77.50;;;;;;5018487;28;20071;-65
2021/12/03 14:54:30;;;;;;;3.75;1.80;;;3.70;77.60;;;;;;5057794;28;20073;-67
2021/12/03 14:57:18;;;;;;;5.78;2.40;;;3.70;77.60;;;;;;5064697;28;20044;-66
2021/12/03 14:59:55;;;;;;;5.50;2.63;;;3.70;77.60;;;;;;5058536;28;21011;-68
2021/12/03 15:02:35;;;;;;;4.88;1.85;;;3.70;77.60;;;;;;5056131;28;20127;-67
2021/12/03 15:05:19;;;;;;;3.60;2.42;;;3.70;77.40;;;;;;5057058;28;20141;-67
2021/12/03 15:07:50;;;;;;;4.22;2.28;;;3.70;77.40;;;;;;5058040;28;20056;-67
2021/12/03 15:10:24;;;;;;;5.28;2.03;;;3.70;77.40;;;;;;5059063;28;20048;-67
2021/12/03 15:13:09;;;;;;;3.88;1.58;;;3.70;77.30;;;;;;5057894;28;20044;-66
2021/12/03 15:19:01;;;;;;;3.88;1.80;;;3.70;77.30;;;;;;5057593;28;20051;-65
2021/12/03 15:21:52;;;;;;;4.00;1.77;;;3.70;77.20;;;;;;5058463;28;20128;-68
2021/12/03 15:24:42;;;;;;;9.63;2.20;;;3.70;77.30;;;;;;5057577;28;20049;-65
2021/12/03 15:30:16;;;;;;;6.22;2.10;;;3.70;77.40;;;;;;5038751;28;20044;-67
2021/12/03 15:32:48;;;;;;;3.63;2.08;;;3.70;77.60;;;;;;5062846;28;20076;-68
2021/12/03 15:35:18;;;;;;;4.28;1.80;;;3.70;77.60;;;;;;5052433;28;20037;-67
2021/12/03 15:41:08;;;;;;;71.40;29.17;;;3.70;77.50;;;;;;5020414;28;20128;-67
2021/12/03 16:06:16;;;;;;;10.32;6.50;;;3.70;77.60;;;;;;5058565;28;20078;-66
2021/12/03 16:08:46;;;;;;;28.83;13.05;;;3.70;77.70;;;;;;5052239;28;20611;-68
2021/12/03 16:11:36;;;;;;;41.38;19.08;;;3.70;77.50;;;;;;5052022;28;20049;-67
2021/12/03 16:20:23;;;;;;;28.27;13.43;;;3.70;77.60;;;;;;5009152;28;20060;-66
2021/12/03 16:25:55;;;;;;;30.45;14.07;;;3.70;77.40;;;;;;5043832;28;20612;-67
2021/12/03 16:53:37;;;;;;;17.08;7.35;;;3.70;77.60;;;;;;5030861;28;20068;-65
2021/12/03 16:56:08;;;;;;;9.90;7.07;;;3.70;77.70;;;;;;5011118;28;20049;-69
2021/12/03 16:58:36;;;;;;;12.77;6.68;;;3.70;77.60;;;;;;5026032;28;20045;-66
2021/12/03 17:01:12;;;;;;;11.35;5.55;;;3.70;77.60;;;;;;5029125;28;20122;-66
2021/12/03 17:03:46;;;;;;;29.80;14.13;;;3.70;77.60;;;;;;5029032;28;20102;-65
2021/12/03 17:09:12;;;;;;;62.88;25.85;;;3.70;77.50;;;;;;5047800;28;20509;-65
2021/12/03 17:11:55;;;;;;;105.38;39.58;;;3.70;77.50;;;;;;5046897;28;20080;-67
2021/12/03 17:45:21;;;;;;;7.57;4.25;;;3.70;77.30;;;;;;5049910;28;20183;-66
2021/12/03 17:47:57;;;;;;;11.75;5.32;;;3.70;77.10;;;;;;5052704;28;20053;-65
2021/12/03 17:50:40;;;;;;;33.90;13.35;;;3.80;77.10;;;;;;5051476;28;20514;-66
2021/12/03 17:56:12;;;;;;;21.10;8.07;;;3.80;77.10;;;;;;5049654;28;20048;-65
2021/12/03 17:58:41;;;;;;;;;;;3.70;77.20;;;;;;5046553;28;20282;-65
2021/12/03 18:01:14;;;;;;;8.27;5.25;;;3.70;77.20;;;;;;5048458;28;19948;-65
2021/12/03 18:03:48;;;;;;;8.18;4.53;;;3.70;77.10;;;;;;5057298;28;20041;-65
2021/12/03 18:09:15;;;;;;;8.88;3.85;;;3.70;77.20;;;;;;5048192;28;20135;-66
2021/12/03 18:48:03;;;;;;;5.90;2.75;;;3.70;77.30;;;;;;5037700;28;20109;-65
2021/12/03 18:53:29;;;;;;;6.10;2.88;;;3.70;77.30;;;;;;5052096;28;20169;-66
2021/12/03 18:55:58;;;;;;;;;;;3.70;77.30;;;;;;5056363;28;20040;-66
2021/12/03 18:58:27;;;;;;;4.32;2.55;;;3.70;77.30;;;;;;5059326;28;19933;-67
2021/12/03 19:00:56;;;;;;;5.18;2.03;;;3.70;77.30;;;;;;5055229;28;20106;-63
2021/12/03 19:03:28;;;;;;;4.75;2.42;;;3.70;77.30;;;;;;5060849;28;20041;-65
2021/12/03 19:06:03;;;;;;;5.15;2.10;;;3.70;77.20;;;;;;5061265;28;20406;-66
2021/12/03 19:08:39;;;;;;;4.18;2.08;;;3.70;77.30;;;;;;5060020;28;20057;-66
2021/12/03 19:11:12;;;;;;;4.97;1.83;;;3.70;77.30;;;;;;5061368;28;20060;-65
2021/12/03 19:13:40;;;;;;;4.15;1.90;;;3.70;77.20;;;;;;5059416;28;20115;-65
2021/12/03 19:16:10;;;;;;;5.90;1.80;;;3.80;77.10;;;;;;5063779;28;20160;-67
2021/12/03 19:18:40;;;;;;;4.60;2.25;;;3.80;77.10;;;;;;5061753;28;20048;-65
2021/12/03 19:21:10;;;;;;;4.63;1.95;;;3.80;76.90;;;;;;5062450;28;20080;-67
2021/12/03 19:23:37;;;;;;;5.20;2.42;;;3.80;76.80;;;;;;5061237;28;20392;-66
2021/12/03 19:26:04;;;;;;;3.45;1.88;;;3.80;76.70;;;;;;5060882;28;20127;-67
2021/12/03 19:28:33;;;;;;;6.55;1.98;;;3.80;76.80;;;;;;5061396;28;20072;-66
2021/12/03 19:31:02;;;;;;;4.43;2.08;;;3.90;76.90;;;;;;5061581;28;20126;-66
2021/12/03 19:33:29;;;;;;;4.25;1.95;;;3.90;76.90;;;;;;5061049;28;20122;-66
2021/12/03 19:35:56;;;;;;;5.07;2.20;;;3.90;77.20;;;;;;5059781;28;20045;-67
2021/12/03 19:38:23;;;;;;;4.03;2.20;;;3.90;77.40;;;;;;5059526;28;20048;-66
2021/12/03 19:40:56;;;;;;;4.68;2.08;;;3.80;77.60;;;;;;5060821;28;20036;-66
2021/12/03 19:43:30;;;;;;;3.10;1.77;;;3.80;77.80;;;;;;5066171;28;20114;-65
2021/12/03 19:46:02;;;;;;;4.55;2.08;;;3.80;77.70;;;;;;5057146;28;22052;-66
2021/12/03 19:48:36;;;;;;;6.20;2.63;;;3.80;77.70;;;;;;5036993;28;20056;-65
2021/12/03 19:51:11;;;;;;;6.15;2.38;;;3.80;77.80;;;;;;5039661;28;20465;-67